createdAt,value
2018-04-06T00:00:14.592Z,64.73
2018-04-06T00:02:42.047Z,65.48
2018-04-06T00:05:09.508Z,65.37
2018-04-06T00:07:36.973Z,65.60
2018-04-06T00:10:04.436Z,65.20
2018-04-06T00:12:32.408Z,65.36
2018-04-06T00:14:59.891Z,65.35
2018-04-06T00:17:27.355Z,65.52
2018-04-06T00:19:54.807Z,65.64
2018-04-06T00:22:22.310Z,65.91
2018-04-06T00:24:49.772Z,66.59
2018-04-06T00:27:17.238Z,66.84
2018-04-06T00:29:44.702Z,66.76
2018-04-06T00:32:12.172Z,66.89
2018-04-06T00:34:39.628Z,66.88
2018-04-06T00:37:07.066Z,67.02
2018-04-06T00:39:34.524Z,66.24
2018-04-06T00:42:01.975Z,66.54
2018-04-06T00:44:29.487Z,66.10
2018-04-06T00:46:58.247Z,66.55
2018-04-06T00:49:25.703Z,66.77
2018-04-06T00:51:53.164Z,66.93
2018-04-06T00:54:20.684Z,67.08
2018-04-06T00:56:48.142Z,67.18
2018-04-06T00:59:15.590Z,67.31
2018-04-06T01:01:43.057Z,66.21
2018-04-06T01:04:10.535Z,65.73
2018-04-06T01:06:37.991Z,65.25
2018-04-06T01:09:06.310Z,66.11
2018-04-06T01:11:33.776Z,66.37
2018-04-06T01:14:01.208Z,66.41
2018-04-06T01:16:28.663Z,66.67
2018-04-06T01:18:56.140Z,67.48
2018-04-06T01:21:23.630Z,67.50
2018-04-06T01:23:51.088Z,67.65
2018-04-06T01:26:18.555Z,67.93
2018-04-06T01:28:46.016Z,68.16
2018-04-06T01:31:13.488Z,68.43
2018-04-06T01:33:40.927Z,68.34
2018-04-06T01:36:08.381Z,68.28
2018-04-06T01:38:35.855Z,68.24
2018-04-06T01:41:03.300Z,67.61
2018-04-06T01:43:30.748Z,67.17
2018-04-06T01:45:58.203Z,66.23
2018-04-06T01:48:25.647Z,65.90
2018-04-06T01:50:53.113Z,65.79
2018-04-06T01:53:20.558Z,65.92
2018-04-06T01:55:48.010Z,64.93
2018-04-06T01:58:15.483Z,63.86
2018-04-06T02:00:42.933Z,63.87
2018-04-06T02:03:10.413Z,63.51
2018-04-06T02:05:37.872Z,62.74
2018-04-06T02:08:05.335Z,62.35
2018-04-06T02:10:32.826Z,61.90
2018-04-06T02:13:00.342Z,61.91
2018-04-06T02:15:27.826Z,61.49
2018-04-06T02:17:55.296Z,61.50
2018-04-06T02:20:22.754Z,61.46
2018-04-06T02:22:50.223Z,60.69
2018-04-06T02:25:17.692Z,60.75
2018-04-06T02:27:45.125Z,60.59
2018-04-06T02:30:12.583Z,60.79
2018-04-06T02:32:40.062Z,60.57
2018-04-06T02:35:07.516Z,60.26
2018-04-06T02:37:34.971Z,60.52
2018-04-06T02:40:02.414Z,60.40
2018-04-06T02:42:29.892Z,60.33
2018-04-06T02:44:57.348Z,60.40
2018-04-06T02:47:24.804Z,60.20
2018-04-06T02:49:52.946Z,60.00
2018-04-06T02:52:20.409Z,59.96
2018-04-06T02:54:47.871Z,60.28
2018-04-06T02:57:15.347Z,60.14
2018-04-06T02:59:42.790Z,59.96
2018-04-06T03:02:10.264Z,60.40
2018-04-06T03:04:37.705Z,60.51
2018-04-06T03:07:05.181Z,60.49
2018-04-06T03:09:32.640Z,60.35
2018-04-06T03:12:00.096Z,60.74
2018-04-06T03:14:27.584Z,60.63
2018-04-06T03:16:55.038Z,60.61
2018-04-06T03:19:22.566Z,60.91
2018-04-06T03:21:50.035Z,60.83
2018-04-06T03:24:17.525Z,61.11
2018-04-06T03:26:44.995Z,61.39
2018-04-06T03:29:12.462Z,61.00
2018-04-06T03:31:39.921Z,60.98
2018-04-06T03:34:07.393Z,60.76
2018-04-06T03:36:34.839Z,60.78
2018-04-06T03:39:02.291Z,60.94
2018-04-06T03:41:29.744Z,60.87
2018-04-06T03:43:57.200Z,60.84
2018-04-06T03:46:24.639Z,60.83
2018-04-06T03:48:52.094Z,60.91
2018-04-06T03:51:19.667Z,60.96
2018-04-06T03:53:47.226Z,60.72
2018-04-06T03:56:14.695Z,60.95
2018-04-06T03:58:42.152Z,60.87
2018-04-06T04:01:09.635Z,60.96
2018-04-06T04:03:37.103Z,60.97
2018-04-06T04:06:04.639Z,60.77
2018-04-06T04:08:32.133Z,60.71
2018-04-06T04:11:00.157Z,60.74
2018-04-06T04:13:27.623Z,60.90
2018-04-06T04:15:55.118Z,60.76
2018-04-06T04:18:22.648Z,60.65
2018-04-06T04:20:50.063Z,60.54
2018-04-06T04:23:17.529Z,60.81
2018-04-06T04:25:44.980Z,60.94
2018-04-06T04:28:12.483Z,61.18
2018-04-06T04:30:39.975Z,61.26
2018-04-06T04:33:07.427Z,61.41
2018-04-06T04:35:34.914Z,61.52
2018-04-06T04:38:02.413Z,61.85
2018-04-06T04:40:29.858Z,61.86
2018-04-06T04:42:57.412Z,62.41
2018-04-06T04:45:24.868Z,62.38
2018-04-06T04:47:52.410Z,62.41
2018-04-06T04:50:19.883Z,62.67
2018-04-06T04:52:47.328Z,62.90
2018-04-06T04:55:14.795Z,62.82
2018-04-06T04:57:42.268Z,62.57
2018-04-06T05:00:09.723Z,62.57
2018-04-06T05:02:37.195Z,62.84
2018-04-06T05:05:04.655Z,63.14
2018-04-06T05:07:32.110Z,63.47
2018-04-06T05:09:59.600Z,63.61
2018-04-06T05:12:27.064Z,63.70
2018-04-06T05:14:54.550Z,63.43
2018-04-06T05:17:22.008Z,63.43
2018-04-06T05:19:49.460Z,63.44
2018-04-06T05:22:16.984Z,63.36
2018-04-06T05:24:44.427Z,63.58
2018-04-06T05:27:12.026Z,63.39
2018-04-06T05:29:39.492Z,63.15
2018-04-06T05:32:06.992Z,63.32
2018-04-06T05:34:34.472Z,63.61
2018-04-06T05:37:01.965Z,63.71
2018-04-06T05:39:29.428Z,63.40
2018-04-06T05:41:56.938Z,63.43
2018-04-06T05:44:24.407Z,62.91
2018-04-06T05:46:51.859Z,62.50
2018-04-06T05:49:19.326Z,61.95
2018-04-06T05:51:46.784Z,61.97
2018-04-06T05:54:14.351Z,61.48
2018-04-06T05:56:41.867Z,61.71
2018-04-06T05:59:09.447Z,61.47
2018-04-06T06:01:37.054Z,60.81
2018-04-06T06:04:04.568Z,60.34
2018-04-06T06:06:32.140Z,60.21
2018-04-06T06:08:59.947Z,60.33
2018-04-06T06:11:27.439Z,59.13
2018-04-06T06:13:55.136Z,58.84
2018-04-06T06:16:22.733Z,58.17
2018-04-06T06:18:50.204Z,57.36
2018-04-06T06:21:17.691Z,56.56
2018-04-06T06:23:45.241Z,55.90
2018-04-06T06:26:12.818Z,55.67
2018-04-06T06:28:40.372Z,55.63
2018-04-06T06:31:07.879Z,54.97
2018-04-06T06:33:35.660Z,54.42
2018-04-06T06:36:03.124Z,54.78
2018-04-06T06:38:30.661Z,55.38
2018-04-06T06:40:58.176Z,54.90
2018-04-06T06:43:25.680Z,55.17
2018-04-06T06:45:53.207Z,55.31
2018-04-06T06:48:20.715Z,56.23
2018-04-06T06:50:48.210Z,56.59
2018-04-06T06:53:15.690Z,56.63
2018-04-06T06:55:43.169Z,56.29
2018-04-06T06:58:10.626Z,55.64
2018-04-06T07:00:38.167Z,54.90
2018-04-06T07:03:05.668Z,55.20
2018-04-06T07:05:33.510Z,55.09
2018-04-06T07:08:01.048Z,55.40
2018-04-06T07:10:28.668Z,55.16
2018-04-06T07:12:56.214Z,55.29
2018-04-06T07:15:23.682Z,55.34
2018-04-06T07:17:51.177Z,55.12
2018-04-06T07:20:18.751Z,55.03
2018-04-06T07:22:46.262Z,55.31
2018-04-06T07:25:13.812Z,54.68
2018-04-06T07:27:41.350Z,55.17
2018-04-06T07:30:08.853Z,54.91
2018-04-06T07:32:36.408Z,55.03
2018-04-06T07:35:03.900Z,55.45
2018-04-06T07:37:31.406Z,54.95
2018-04-06T07:39:58.882Z,54.42
2018-04-06T07:42:26.363Z,53.99
2018-04-06T07:44:53.814Z,54.20
2018-04-06T07:47:21.287Z,53.86
2018-04-06T07:49:48.748Z,53.33
2018-04-06T07:52:16.239Z,53.26
2018-04-06T07:54:43.714Z,52.16
2018-04-06T07:57:11.171Z,52.28
2018-04-06T07:59:38.665Z,52.25
2018-04-06T08:02:06.176Z,52.15
2018-04-06T08:04:33.656Z,52.02
2018-04-06T08:07:01.107Z,51.56
2018-04-06T08:09:28.558Z,51.13
2018-04-06T08:11:56.035Z,51.04
2018-04-06T08:14:23.510Z,51.19
2018-04-06T08:16:50.971Z,51.60
2018-04-06T08:19:18.457Z,51.97
2018-04-06T08:21:45.913Z,52.06
2018-04-06T08:24:13.392Z,52.80
2018-04-06T08:26:40.912Z,52.77
2018-04-06T08:29:08.381Z,52.46
2018-04-06T08:31:35.867Z,53.34
2018-04-06T08:34:03.389Z,53.15
2018-04-06T08:36:30.858Z,53.37
2018-04-06T08:38:58.344Z,52.63
2018-04-06T08:41:25.824Z,52.09
2018-04-06T08:43:53.301Z,52.00
2018-04-06T08:46:20.766Z,51.92
2018-04-06T08:48:48.328Z,51.81
2018-04-06T08:51:15.806Z,51.91
2018-04-06T08:53:43.345Z,51.75
2018-04-06T08:56:10.820Z,50.90
2018-04-06T08:58:38.302Z,51.10
2018-04-06T09:01:05.774Z,50.92
2018-04-06T09:03:33.260Z,50.21
2018-04-06T09:06:00.762Z,49.90
2018-04-06T09:08:28.247Z,49.76
2018-04-06T09:10:55.738Z,49.13
2018-04-06T09:13:23.232Z,48.89
2018-04-06T09:15:50.715Z,49.08
2018-04-06T09:18:18.179Z,48.92
2018-04-06T09:20:45.682Z,48.04
2018-04-06T09:23:13.191Z,47.90
2018-04-06T09:25:40.668Z,46.97
2018-04-06T09:28:08.143Z,47.24
2018-04-06T09:30:35.656Z,46.45
2018-04-06T09:33:03.123Z,46.10
2018-04-06T09:35:30.648Z,45.58
2018-04-06T09:37:58.132Z,44.51
2018-04-06T09:40:25.637Z,45.40
2018-04-06T09:42:53.112Z,45.16
2018-04-06T09:45:20.608Z,44.58
2018-04-06T09:47:48.080Z,45.06
2018-04-06T09:50:15.549Z,44.88
2018-04-06T09:52:43.015Z,45.03
2018-04-06T09:55:10.483Z,45.27
2018-04-06T09:57:37.998Z,44.91
2018-04-06T10:00:05.490Z,44.72
2018-04-06T10:02:38.534Z,44.04
2018-04-06T10:05:06.056Z,44.16
2018-04-06T10:07:33.523Z,44.33
2018-04-06T10:10:01.022Z,43.44
2018-04-06T10:12:28.490Z,43.54
2018-04-06T10:14:55.946Z,42.99
2018-04-06T10:17:23.416Z,42.57
2018-04-06T10:19:50.860Z,42.32
2018-04-06T10:22:18.336Z,42.43
2018-04-06T10:24:45.817Z,42.62
2018-04-06T10:27:13.280Z,42.90
2018-04-06T10:29:40.765Z,41.72
2018-04-06T10:32:08.229Z,41.32
2018-04-06T10:34:35.682Z,42.07
2018-04-06T10:37:03.123Z,41.01
2018-04-06T10:39:30.596Z,41.04
2018-04-06T10:41:58.052Z,42.00
2018-04-06T10:44:25.536Z,42.30
2018-04-06T10:46:53.022Z,42.57
2018-04-06T10:49:20.507Z,41.82
2018-04-06T10:51:47.968Z,41.54
2018-04-06T10:54:15.423Z,41.09
2018-04-06T10:56:42.901Z,42.28
2018-04-06T10:59:10.389Z,43.08
2018-04-06T11:01:37.852Z,43.22
2018-04-06T11:04:05.309Z,43.04
2018-04-06T11:06:32.783Z,43.22
2018-04-06T11:09:00.245Z,43.10
2018-04-06T11:11:27.720Z,42.70
2018-04-06T11:13:55.168Z,42.57
2018-04-06T11:16:22.647Z,43.49
2018-04-06T11:18:50.148Z,43.25
2018-04-06T11:21:17.612Z,42.78
2018-04-06T11:23:45.066Z,42.91
2018-04-06T11:26:12.523Z,42.41
2018-04-06T11:28:39.980Z,41.90
2018-04-06T11:31:07.450Z,42.79
2018-04-06T11:33:34.912Z,42.68
2018-04-06T11:36:02.371Z,42.60
2018-04-06T11:38:30.819Z,42.20
2018-04-06T11:40:58.275Z,42.56
2018-04-06T11:43:25.724Z,42.48
2018-04-06T11:45:53.192Z,42.22
2018-04-06T11:48:20.699Z,42.07
2018-04-06T11:50:48.148Z,42.40
2018-04-06T11:53:15.622Z,42.48
2018-04-06T11:55:43.082Z,42.60
2018-04-06T11:58:10.555Z,42.77
2018-04-06T12:00:38.038Z,42.14
2018-04-06T12:03:05.506Z,41.84
2018-04-06T12:05:32.979Z,41.05
2018-04-06T12:08:00.451Z,41.89
2018-04-06T12:10:27.912Z,41.50
2018-04-06T12:12:55.372Z,41.10
2018-04-06T12:15:22.840Z,40.85
2018-04-06T12:17:50.311Z,41.12
2018-04-06T12:20:17.767Z,40.62
2018-04-06T12:22:45.241Z,39.86
2018-04-06T12:25:12.727Z,39.92
2018-04-06T12:27:40.191Z,40.08
2018-04-06T12:30:07.648Z,40.02
2018-04-06T12:32:35.106Z,39.69
2018-04-06T12:35:02.600Z,39.02
2018-04-06T12:37:30.064Z,39.08
2018-04-06T12:39:57.529Z,39.07
2018-04-06T12:42:25.000Z,39.43
2018-04-06T12:44:52.514Z,40.62
2018-04-06T12:47:19.984Z,40.54
2018-04-06T12:49:47.436Z,39.58
2018-04-06T12:52:14.921Z,38.20
2018-04-06T12:54:42.403Z,37.79
2018-04-06T12:57:09.892Z,38.62
2018-04-06T12:59:37.372Z,38.41
2018-04-06T13:02:04.827Z,37.85
2018-04-06T13:04:32.280Z,37.34
2018-04-06T13:06:59.751Z,36.22
2018-04-06T13:09:27.223Z,36.80
2018-04-06T13:11:54.700Z,37.00
2018-04-06T13:14:22.212Z,37.38
2018-04-06T13:16:49.685Z,37.43
2018-04-06T13:19:17.156Z,36.83
2018-04-06T13:21:44.637Z,36.64
2018-04-06T13:24:12.121Z,36.81
2018-04-06T13:26:39.584Z,36.15
2018-04-06T13:29:07.060Z,35.58
2018-04-06T13:31:34.543Z,34.75
2018-04-06T13:34:02.020Z,35.66
2018-04-06T13:36:29.504Z,36.88
2018-04-06T13:38:56.971Z,36.19
2018-04-06T13:41:24.429Z,35.32
2018-04-06T13:43:51.937Z,35.10
2018-04-06T13:46:19.400Z,35.66
2018-04-06T13:48:47.143Z,35.04
2018-04-06T13:51:14.613Z,35.25
2018-04-06T13:53:42.098Z,35.32
2018-04-06T13:56:09.569Z,34.30
2018-04-06T13:58:37.056Z,34.27
2018-04-06T14:01:04.542Z,33.89
2018-04-06T14:03:31.999Z,34.07
2018-04-06T14:05:59.469Z,34.05
2018-04-06T14:08:26.946Z,33.86
2018-04-06T14:10:54.453Z,33.41
2018-04-06T14:13:21.902Z,32.36
2018-04-06T14:15:49.363Z,31.51
2018-04-06T14:18:16.836Z,30.16
2018-04-06T14:20:44.305Z,29.86
2018-04-06T14:23:11.768Z,29.26
2018-04-06T14:25:39.257Z,28.40
2018-04-06T14:28:06.716Z,26.85
2018-04-06T14:30:34.171Z,28.10
2018-04-06T14:33:01.656Z,27.17
2018-04-06T14:35:29.244Z,26.88
2018-04-06T14:37:56.708Z,28.08
2018-04-06T14:40:24.197Z,27.12
2018-04-06T14:42:51.691Z,25.65
2018-04-06T14:45:19.156Z,25.32
2018-04-06T14:47:46.636Z,23.83
2018-04-06T14:50:14.095Z,23.75
2018-04-06T14:52:41.587Z,23.16
2018-04-06T14:55:09.077Z,23.08
2018-04-06T14:57:36.545Z,24.53
2018-04-06T15:00:04.029Z,24.05
2018-04-06T15:02:31.505Z,23.08
2018-04-06T15:04:59.059Z,22.10
2018-04-06T15:07:26.559Z,21.77
2018-04-06T15:09:54.017Z,21.75
2018-04-06T15:12:21.480Z,21.59
2018-04-06T15:14:48.962Z,21.66
2018-04-06T15:17:16.437Z,22.28
2018-04-06T15:19:43.984Z,23.05
2018-04-06T15:22:11.477Z,22.72
2018-04-06T15:24:38.952Z,21.91
2018-04-06T15:27:06.416Z,23.47
2018-04-06T15:29:33.909Z,22.58
2018-04-06T15:32:01.396Z,21.72
2018-04-06T15:34:28.883Z,20.51
2018-04-06T15:36:56.381Z,21.91
2018-04-06T15:39:23.845Z,21.18
2018-04-06T15:41:51.366Z,22.37
2018-04-06T15:44:18.825Z,22.32
2018-04-06T15:46:46.288Z,21.99
2018-04-06T15:49:13.809Z,21.22
2018-04-06T15:51:41.378Z,21.49
2018-04-06T15:54:10.972Z,21.55
2018-04-06T15:56:38.438Z,20.70
2018-04-06T15:59:05.896Z,20.50
2018-04-06T16:01:33.480Z,20.78
2018-04-06T16:04:01.082Z,20.71
2018-04-06T16:06:28.680Z,21.07
2018-04-06T16:08:56.155Z,20.59
2018-04-06T16:11:24.482Z,20.32
2018-04-06T16:13:51.972Z,20.73
2018-04-06T16:16:19.437Z,20.93
2018-04-06T16:18:46.982Z,21.33
2018-04-06T16:21:14.443Z,22.44
2018-04-06T16:23:41.937Z,22.98
2018-04-06T16:26:09.437Z,23.40
2018-04-06T16:28:36.896Z,23.33
2018-04-06T16:31:04.393Z,22.97
2018-04-06T16:33:39.467Z,22.60
2018-04-06T16:36:06.994Z,22.70
2018-04-06T16:38:34.478Z,22.76
2018-04-06T16:41:02.009Z,23.62
2018-04-06T16:43:29.562Z,24.88
2018-04-06T16:45:58.732Z,25.01
2018-04-06T16:48:26.203Z,25.56
2018-04-06T16:50:53.688Z,25.18
2018-04-06T16:53:21.212Z,25.52
2018-04-06T16:55:48.789Z,25.92
2018-04-06T16:58:16.274Z,26.40
2018-04-06T17:00:43.746Z,26.84
2018-04-06T17:03:11.217Z,27.31
2018-04-06T17:05:38.708Z,28.98
2018-04-06T17:08:06.195Z,30.51
2018-04-06T17:10:33.708Z,31.54
2018-04-06T17:13:01.181Z,32.89
2018-04-06T17:15:28.632Z,34.25
2018-04-06T17:17:56.124Z,35.69
2018-04-06T17:20:23.591Z,36.80
2018-04-06T17:22:51.127Z,37.93
2018-04-06T17:25:18.642Z,39.13
2018-04-06T17:27:46.102Z,39.93
2018-04-06T17:30:13.611Z,40.48
2018-04-06T17:32:41.150Z,40.98
2018-04-06T17:35:08.627Z,41.79
2018-04-06T17:37:36.118Z,42.08
2018-04-06T17:40:03.644Z,42.79
2018-04-06T17:42:31.153Z,42.98
2018-04-06T17:44:58.810Z,43.81
2018-04-06T17:47:26.352Z,44.31
2018-04-06T17:49:54.080Z,44.72
2018-04-06T17:52:21.943Z,45.29
2018-04-06T17:54:49.666Z,45.74
2018-04-06T17:57:17.231Z,46.28
2018-04-06T17:59:44.712Z,46.58
2018-04-06T18:02:12.193Z,46.75
2018-04-06T18:04:41.620Z,47.01
2018-04-06T18:07:09.113Z,46.71
2018-04-06T18:09:36.614Z,46.91
2018-04-06T18:12:04.113Z,47.24
2018-04-06T18:14:31.591Z,47.27
2018-04-06T18:16:59.061Z,47.84
2018-04-06T18:19:26.584Z,48.03
2018-04-06T18:21:54.357Z,48.11
2018-04-06T18:24:21.923Z,47.98
2018-04-06T18:26:49.422Z,48.26
2018-04-06T18:29:16.947Z,48.37
2018-04-06T18:31:44.451Z,48.74
2018-04-06T18:34:11.981Z,49.31
2018-04-06T18:36:39.467Z,49.39
2018-04-06T18:39:06.968Z,49.29
2018-04-06T18:41:34.427Z,49.67
2018-04-06T18:44:01.926Z,49.79
2018-04-06T18:46:29.408Z,50.22
2018-04-06T18:48:56.983Z,50.27
2018-04-06T18:51:24.980Z,50.28
2018-04-06T18:53:52.453Z,50.45
2018-04-06T18:56:19.949Z,50.95
2018-04-06T18:58:47.441Z,50.61
2018-04-06T19:01:14.928Z,50.91
2018-04-06T19:03:42.415Z,51.35
2018-04-06T19:06:09.884Z,51.60
2018-04-06T19:08:37.359Z,52.08
2018-04-06T19:11:04.859Z,52.19
2018-04-06T19:13:32.330Z,52.33
2018-04-06T19:15:59.808Z,52.38
2018-04-06T19:18:27.295Z,52.81
2018-04-06T19:20:55.024Z,53.52
2018-04-06T19:23:22.519Z,53.81
2018-04-06T19:25:49.984Z,53.96
2018-04-06T19:28:17.485Z,53.63
2018-04-06T19:30:44.991Z,53.62
2018-04-06T19:33:12.457Z,53.74
2018-04-06T19:35:39.985Z,53.94
2018-04-06T19:38:07.458Z,53.99
2018-04-06T19:40:34.924Z,54.17
2018-04-06T19:43:02.418Z,54.48
2018-04-06T19:45:29.907Z,54.76
2018-04-06T19:47:57.396Z,55.01
2018-04-06T19:50:24.874Z,55.30
2018-04-06T19:52:52.391Z,55.38
2018-04-06T19:55:19.935Z,55.41
2018-04-06T19:57:47.496Z,55.06
2018-04-06T20:00:14.975Z,55.39
2018-04-06T20:02:42.535Z,55.68
2018-04-06T20:05:10.044Z,55.97
2018-04-06T20:07:37.637Z,56.48
2018-04-06T20:10:05.139Z,56.93
2018-04-06T20:12:32.600Z,57.19
2018-04-06T20:15:00.083Z,57.59
2018-04-06T20:17:27.597Z,57.36
2018-04-06T20:19:55.075Z,57.75
2018-04-06T20:22:22.563Z,58.08
2018-04-06T20:24:50.034Z,58.37
2018-04-06T20:27:17.547Z,58.68
2018-04-06T20:29:45.052Z,58.30
2018-04-06T20:32:12.524Z,58.43
2018-04-06T20:34:40.016Z,58.51
2018-04-06T20:37:07.488Z,58.75
2018-04-06T20:39:34.981Z,59.43
2018-04-06T20:42:02.463Z,59.32
2018-04-06T20:44:29.940Z,59.07
2018-04-06T20:46:57.599Z,59.45
2018-04-06T20:49:25.099Z,59.16
2018-04-06T20:51:52.577Z,59.25
2018-04-06T20:54:20.071Z,59.43
2018-04-06T20:56:47.581Z,59.58
2018-04-06T20:59:15.236Z,60.21
2018-04-06T21:01:42.724Z,60.53
2018-04-06T21:04:10.172Z,59.86
2018-04-06T21:06:37.644Z,59.22
2018-04-06T21:09:06.024Z,59.62
2018-04-06T21:11:33.505Z,59.73
2018-04-06T21:14:00.989Z,59.80
2018-04-06T21:16:28.463Z,60.44
2018-04-06T21:18:56.017Z,60.55
2018-04-06T21:21:23.487Z,61.01
2018-04-06T21:23:51.055Z,60.03
2018-04-06T21:26:18.547Z,59.57
2018-04-06T21:28:46.034Z,58.39
2018-04-06T21:31:13.541Z,58.63
2018-04-06T21:33:41.032Z,59.22
2018-04-06T21:36:08.557Z,58.86
2018-04-06T21:38:36.113Z,58.68
2018-04-06T21:41:03.591Z,59.29
2018-04-06T21:43:31.090Z,58.97
2018-04-06T21:45:58.587Z,58.81
2018-04-06T21:48:26.115Z,58.99
2018-04-06T21:50:53.605Z,58.93
2018-04-06T21:53:21.088Z,58.46
2018-04-06T21:55:48.609Z,57.10
2018-04-06T21:58:16.109Z,57.40
2018-04-06T22:00:43.623Z,56.19
2018-04-06T22:03:11.156Z,56.97
2018-04-06T22:05:38.646Z,56.69
2018-04-06T22:08:06.108Z,56.89
2018-04-06T22:10:33.599Z,56.16
2018-04-06T22:13:01.205Z,56.22
2018-04-06T22:15:28.686Z,56.40
2018-04-06T22:17:56.188Z,55.97
2018-04-06T22:20:23.680Z,55.79
2018-04-06T22:22:51.230Z,54.09
2018-04-06T22:25:18.718Z,53.01
2018-04-06T22:27:46.168Z,52.83
2018-04-06T22:30:13.647Z,52.86
2018-04-06T22:32:41.516Z,53.17
2018-04-06T22:35:08.997Z,53.95
2018-04-06T22:37:36.475Z,52.20
2018-04-06T22:40:03.973Z,51.79
2018-04-06T22:42:31.444Z,52.22
2018-04-06T22:44:58.908Z,52.07
2018-04-06T22:47:26.396Z,52.30
2018-04-06T22:49:53.836Z,52.68
2018-04-06T22:52:21.372Z,51.71
2018-04-06T22:54:48.848Z,50.65
2018-04-06T22:57:16.326Z,50.63
2018-04-06T22:59:43.803Z,51.08
2018-04-06T23:02:11.299Z,51.44
2018-04-06T23:04:38.758Z,51.37
2018-04-06T23:07:06.222Z,50.12
2018-04-06T23:09:33.696Z,50.70
2018-04-06T23:12:01.157Z,50.97
2018-04-06T23:14:28.717Z,51.06
2018-04-06T23:16:56.180Z,51.81
2018-04-06T23:19:23.663Z,52.33
2018-04-06T23:21:51.153Z,52.02
2018-04-06T23:24:18.623Z,51.94
2018-04-06T23:26:46.100Z,51.71
2018-04-06T23:29:13.564Z,51.87
2018-04-06T23:31:41.045Z,51.52
2018-04-06T23:34:08.528Z,50.91
2018-04-06T23:36:35.994Z,50.75
2018-04-06T23:39:03.506Z,51.05
2018-04-06T23:41:30.977Z,51.76
2018-04-06T23:43:58.495Z,51.57
2018-04-06T23:46:26.030Z,51.03
2018-04-06T23:48:53.507Z,50.50
2018-04-06T23:51:20.957Z,50.34
2018-04-06T23:53:48.424Z,51.29
2018-04-06T23:56:15.888Z,51.43
2018-04-06T23:58:43.335Z,51.53
